createdAt,value
2019-05-21T02:42:44.540Z,17.17
2019-05-21T04:50:22.825Z,19.00
2019-05-21T04:52:54.213Z,19.01
2019-05-21T04:55:25.593Z,19.08
2019-05-21T04:57:56.897Z,19.08
2019-05-21T05:00:28.251Z,19.13
2019-05-21T05:02:59.554Z,19.15
2019-05-21T05:05:31.266Z,19.22
2019-05-21T05:08:09.198Z,19.25
2019-05-21T05:10:43.787Z,19.25
2019-05-21T05:13:16.185Z,19.25
2019-05-21T05:35:12.589Z,19.48
2019-05-21T05:38:19.933Z,19.47
2019-05-21T05:40:53.974Z,19.49
2019-05-21T05:43:40.954Z,19.54
2019-05-21T05:46:43.280Z,19.54
2019-05-21T05:49:40.073Z,19.57
2019-05-21T05:52:15.353Z,19.63
2019-05-21T05:57:59.025Z,19.66
2019-05-21T06:03:43.761Z,19.71
2019-05-21T06:13:27.571Z,19.85
2019-05-21T06:32:56.588Z,20.43
2019-05-21T06:39:25.170Z,20.58
2019-05-21T06:58:38.965Z,20.93
2019-05-21T07:01:34.832Z,20.99
2019-05-21T07:07:23.012Z,21.05
2019-05-21T07:10:17.091Z,21.02
2019-05-21T07:13:02.205Z,21.01
2019-05-21T07:18:19.626Z,20.97
2019-05-21T07:21:01.087Z,20.94
2019-05-21T07:23:32.396Z,20.92
2019-05-21T07:26:19.811Z,20.92
2019-05-21T07:28:55.553Z,20.81
2019-05-21T07:31:48.130Z,20.83
2019-05-21T07:34:27.205Z,20.87
2019-05-21T07:37:17.778Z,20.87
2019-05-21T07:56:08.520Z,21.13
2019-05-21T08:02:10.139Z,21.16
2019-05-21T08:07:51.322Z,21.37
2019-05-21T08:13:59.574Z,21.56
2019-05-21T08:17:03.958Z,21.60
2019-05-21T08:19:52.642Z,21.67
2019-05-21T08:22:49.625Z,21.71
2019-05-21T08:25:44.846Z,21.72
2019-05-21T08:28:21.711Z,21.74
2019-05-21T08:31:21.920Z,21.81
2019-05-21T08:34:22.969Z,21.93
2019-05-21T10:24:30.250Z,23.58
2019-05-21T10:27:33.201Z,23.72
2019-05-21T10:30:13.288Z,23.80
2019-05-21T10:32:47.699Z,23.82
2019-05-21T10:35:25.697Z,23.95
2019-05-21T10:38:11.425Z,24.05
2019-05-21T10:40:53.148Z,24.11
2019-05-21T10:43:36.056Z,24.21
2019-05-21T10:49:35.647Z,24.23
2019-05-21T10:52:12.934Z,24.23
2019-05-21T10:54:44.389Z,24.29
2019-05-21T10:57:23.741Z,24.27
2019-05-21T11:00:15.636Z,24.21
2019-05-21T11:03:14.524Z,24.16
2019-05-21T11:06:09.656Z,24.05
2019-05-21T11:08:41.056Z,23.98
2019-05-21T11:11:24.205Z,23.98
2019-05-21T11:13:59.886Z,23.96
2019-05-21T11:16:38.272Z,23.98
2019-05-21T11:19:15.253Z,23.97
2019-05-21T11:22:01.298Z,23.96
2019-05-21T11:24:31.683Z,23.93
2019-05-21T11:27:15.124Z,23.95
2019-05-21T11:29:53.629Z,23.95
2019-05-21T11:32:26.761Z,23.99
2019-05-21T11:35:10.513Z,24.05
2019-05-21T11:37:47.693Z,24.15
2019-05-21T11:40:39.543Z,24.28
2019-05-21T11:43:12.318Z,24.39
2019-05-21T11:53:45.245Z,24.68
2019-05-21T11:57:11.468Z,24.74
2019-05-21T11:59:51.859Z,24.77
2019-05-21T12:02:37.876Z,24.81
2019-05-21T12:05:09.263Z,24.88
2019-05-21T12:07:45.782Z,25.04
2019-05-21T12:10:24.696Z,25.01
2019-05-21T12:13:20.265Z,25.13
2019-05-21T12:16:02.985Z,25.32
2019-05-21T12:22:10.444Z,25.64
2019-05-21T12:25:37.541Z,25.73
2019-05-21T12:28:36.226Z,25.83
2019-05-21T12:31:49.101Z,25.84
2019-05-21T12:34:20.208Z,25.81
2019-05-21T12:37:02.314Z,25.84
2019-05-21T12:40:01.348Z,25.85
2019-05-21T12:42:45.296Z,25.83
2019-05-21T12:45:25.726Z,25.88
2019-05-21T12:48:06.109Z,25.84
2019-05-21T12:50:49.331Z,25.87
2019-05-21T12:53:38.511Z,25.83
2019-05-21T12:56:09.880Z,25.81
2019-05-21T12:58:41.402Z,25.88
2019-05-21T13:04:12.230Z,25.88
2019-05-21T13:06:43.472Z,26.05
2019-05-21T13:09:32.815Z,26.09
2019-05-21T13:12:05.852Z,26.10
2019-05-21T13:15:02.425Z,26.06
2019-05-21T13:17:50.491Z,26.19
2019-05-21T13:20:24.253Z,26.18
2019-05-21T13:23:04.426Z,26.26
2019-05-21T13:25:46.973Z,26.34
2019-05-21T13:28:26.922Z,26.38
2019-05-21T13:31:15.391Z,26.37
2019-05-21T13:33:58.002Z,26.47
2019-05-21T13:36:44.248Z,26.38
2019-05-21T13:39:16.615Z,26.43
2019-05-21T13:41:47.979Z,26.55
2019-05-21T13:44:19.417Z,26.59
2019-05-21T13:46:54.098Z,26.59
2019-05-21T13:49:27.032Z,26.61
2019-05-21T13:52:32.654Z,26.53
2019-05-21T13:55:55.087Z,26.58
2019-05-21T13:57:52.592Z,26.64
2019-05-21T14:09:44.192Z,26.32
2019-05-21T14:12:35.317Z,26.35
2019-05-21T14:16:36.655Z,26.44
2019-05-21T14:18:22.921Z,26.49
2019-05-21T14:24:19.245Z,26.86
2019-05-21T14:26:58.488Z,27.07
2019-05-21T14:29:31.609Z,27.18
2019-05-21T14:32:05.682Z,27.10
2019-05-21T14:38:09.101Z,27.16
2019-05-21T14:41:10.384Z,27.09
2019-05-21T14:43:39.983Z,27.23
2019-05-21T14:53:23.324Z,26.94
2019-05-21T14:56:28.417Z,26.85
2019-05-21T15:05:44.158Z,27.05
2019-05-21T15:18:14.749Z,26.64
2019-05-21T15:20:45.735Z,26.59
2019-05-21T15:23:29.489Z,26.56
2019-05-21T15:26:07.229Z,26.59
2019-05-21T15:28:44.935Z,26.56
2019-05-21T15:31:35.198Z,26.62
2019-05-21T15:34:08.815Z,26.71
2019-05-21T15:36:47.316Z,26.87
2019-05-21T15:39:15.768Z,26.98
2019-05-21T15:41:47.221Z,26.90
2019-05-21T15:44:26.962Z,26.91
2019-05-21T15:47:03.667Z,26.99
2019-05-21T15:49:39.390Z,26.96
2019-05-21T15:52:15.143Z,26.84
2019-05-21T15:54:48.778Z,26.80
2019-05-21T15:57:23.140Z,26.85
2019-05-21T15:59:55.410Z,26.78
2019-05-21T16:02:33.939Z,26.65
2019-05-21T16:05:08.113Z,26.70
2019-05-21T16:07:50.864Z,26.64
2019-05-21T16:10:36.374Z,26.60
2019-05-21T16:13:10.361Z,26.59
2019-05-21T16:15:43.743Z,26.61
2019-05-21T16:18:17.100Z,26.62
2019-05-21T16:20:49.203Z,26.57
2019-05-21T16:23:20.515Z,26.59
2019-05-21T16:26:03.641Z,26.52
2019-05-21T16:28:47.475Z,26.27
2019-05-21T16:31:19.911Z,26.17
2019-05-21T16:34:06.598Z,26.06
2019-05-21T16:36:47.649Z,25.96
2019-05-21T16:39:20.663Z,25.79
2019-05-21T16:41:52.207Z,25.73
2019-05-21T16:44:26.965Z,25.71
2019-05-21T16:47:02.826Z,25.59
2019-05-21T16:49:34.497Z,25.51
2019-05-21T16:52:16.564Z,25.50
2019-05-21T16:54:55.487Z,25.46
2019-05-21T16:57:29.955Z,25.41
2019-05-21T17:00:01.443Z,25.36
2019-05-21T17:02:33.626Z,25.35
2019-05-21T17:05:08.093Z,25.31
2019-05-21T17:07:39.658Z,25.24
2019-05-21T17:10:11.079Z,25.20
2019-05-21T17:12:42.531Z,25.15
2019-05-21T17:15:14.102Z,25.09
2019-05-21T17:17:45.656Z,25.06
2019-05-21T17:20:16.363Z,24.99
2019-05-21T17:22:47.448Z,24.77
2019-05-21T17:25:18.049Z,24.79
2019-05-21T17:27:49.086Z,24.68
2019-05-21T17:30:20.507Z,24.70
2019-05-21T17:32:51.982Z,24.67
2019-05-21T17:35:22.703Z,24.62
2019-05-21T17:37:53.974Z,24.44
2019-05-21T17:40:25.501Z,24.45
2019-05-21T17:42:57.093Z,24.44
2019-05-21T17:45:29.563Z,24.36
2019-05-21T17:48:01.212Z,24.25
2019-05-21T17:50:33.209Z,24.26
2019-05-21T17:53:04.780Z,24.10
2019-05-21T17:55:37.254Z,24.03
2019-05-21T17:58:08.716Z,23.91
2019-05-21T18:00:50.161Z,23.86
2019-05-21T18:03:21.877Z,23.59
2019-05-21T18:05:54.973Z,23.47
2019-05-21T18:08:28.132Z,23.37
2019-05-21T18:10:59.937Z,23.30
2019-05-21T18:13:31.965Z,23.25
2019-05-21T18:16:03.861Z,23.17
2019-05-21T18:18:35.419Z,23.14
2019-05-21T18:21:08.037Z,23.13
2019-05-21T18:23:39.971Z,23.11
2019-05-21T18:26:11.494Z,23.07
2019-05-21T18:28:42.283Z,23.04
2019-05-21T18:31:13.595Z,22.79
2019-05-21T18:33:45.263Z,22.91
2019-05-21T18:36:16.907Z,22.88
2019-05-21T18:38:48.358Z,22.84
2019-05-21T18:41:19.177Z,22.75
2019-05-21T18:43:50.397Z,22.47
2019-05-21T18:46:21.904Z,22.43
2019-05-21T18:48:53.529Z,22.32
2019-05-21T18:51:25.062Z,22.19
2019-05-21T18:53:57.539Z,22.01
2019-05-21T18:56:29.077Z,21.90
2019-05-21T18:59:00.597Z,21.83
2019-05-21T19:01:32.182Z,21.64
2019-05-21T19:04:03.763Z,21.55
2019-05-21T19:06:35.220Z,21.53
2019-05-21T19:09:06.885Z,21.41
2019-05-21T19:11:37.597Z,21.13
2019-05-21T19:14:08.744Z,21.06
2019-05-21T19:16:39.510Z,21.07
2019-05-21T19:19:10.692Z,20.89
2019-05-21T19:21:42.244Z,21.02
2019-05-21T19:24:13.754Z,20.98
2019-05-21T19:26:45.327Z,21.05
2019-05-21T19:29:16.033Z,21.04
2019-05-21T19:31:49.320Z,20.79
2019-05-21T19:34:20.464Z,20.77
2019-05-21T19:36:51.299Z,20.82
2019-05-21T19:39:23.939Z,20.73
2019-05-21T19:41:55.325Z,20.85
2019-05-21T19:44:26.931Z,20.88
2019-05-21T19:46:57.695Z,20.85
2019-05-21T19:49:31.771Z,20.79
2019-05-21T19:52:03.310Z,20.81
2019-05-21T19:54:35.931Z,20.81
2019-05-21T19:57:09.187Z,20.74
2019-05-21T19:59:40.683Z,20.68
2019-05-21T20:02:12.226Z,20.66
2019-05-21T20:04:43.101Z,20.61
2019-05-21T20:07:15.796Z,20.40
2019-05-21T20:09:48.883Z,20.39
2019-05-21T20:12:22.839Z,20.34
2019-05-21T20:14:55.915Z,20.25
2019-05-21T20:17:28.641Z,20.25
2019-05-21T20:20:00.388Z,20.16
2019-05-21T20:22:31.919Z,20.11
2019-05-21T20:25:05.010Z,20.04
2019-05-21T20:27:37.098Z,19.92
2019-05-21T20:30:13.028Z,19.84
2019-05-21T20:32:44.215Z,19.73
2019-05-21T20:35:16.989Z,19.71
2019-05-21T20:37:50.185Z,19.70
2019-05-21T20:40:22.259Z,19.63
2019-05-21T20:42:54.769Z,19.59
2019-05-21T20:45:27.915Z,19.49
2019-05-21T20:47:59.697Z,19.49
2019-05-21T20:50:31.292Z,19.44
2019-05-21T20:53:02.876Z,19.37
2019-05-21T20:55:34.042Z,19.32
2019-05-21T20:58:05.792Z,19.23
2019-05-21T21:00:40.081Z,19.26
2019-05-21T21:03:13.993Z,19.27
2019-05-21T21:05:46.745Z,19.23
2019-05-21T21:08:19.746Z,19.23
2019-05-21T21:10:51.155Z,19.22
2019-05-21T21:13:21.973Z,19.18
2019-05-21T21:15:53.438Z,18.97
2019-05-21T21:18:25.281Z,19.02
2019-05-21T21:20:56.856Z,19.05
2019-05-21T21:23:29.230Z,19.05
2019-05-21T21:26:00.488Z,18.94
2019-05-21T21:28:32.048Z,19.00
2019-05-21T21:31:03.221Z,19.02
2019-05-21T21:33:34.290Z,18.91
2019-05-21T21:36:07.277Z,19.00
2019-05-21T21:38:39.037Z,19.06
2019-05-21T21:41:10.736Z,19.08
2019-05-21T21:43:41.447Z,19.10
2019-05-21T21:46:12.606Z,18.97
2019-05-21T21:48:45.609Z,19.10
2019-05-21T21:51:18.236Z,19.14
2019-05-21T21:53:50.191Z,19.16
2019-05-21T21:56:21.882Z,19.18
2019-05-21T21:58:53.377Z,19.22
2019-05-21T22:01:29.606Z,19.23
2019-05-21T22:04:01.795Z,19.23
2019-05-21T22:06:35.370Z,19.26
2019-05-21T22:09:08.550Z,19.29
2019-05-21T22:11:40.450Z,19.32
2019-05-21T22:14:12.410Z,19.33
2019-05-21T22:16:45.320Z,19.34
2019-05-21T22:19:17.171Z,19.35
2019-05-21T22:21:48.582Z,19.35
2019-05-21T22:24:20.291Z,19.38
2019-05-21T22:26:51.781Z,19.37
2019-05-21T22:29:23.546Z,19.37
2019-05-21T22:31:54.860Z,19.39
2019-05-21T22:34:26.045Z,19.38
2019-05-21T22:36:57.271Z,19.23
2019-05-21T22:39:30.239Z,19.25
2019-05-21T22:42:01.967Z,19.25
2019-05-21T22:44:35.188Z,19.26
2019-05-21T22:47:07.767Z,19.28
2019-05-21T22:49:39.175Z,19.29
2019-05-21T22:52:10.564Z,19.31
2019-05-21T22:54:41.323Z,19.29
2019-05-21T22:57:12.580Z,19.16
2019-05-21T22:59:44.112Z,19.24
2019-05-21T23:02:16.497Z,19.26
2019-05-21T23:04:47.651Z,19.14
2019-05-21T23:07:20.798Z,19.20
2019-05-21T23:09:51.424Z,19.25
2019-05-21T23:12:22.800Z,19.16
2019-05-21T23:14:55.436Z,19.22
2019-05-21T23:17:28.499Z,19.27
2019-05-21T23:20:14.283Z,19.31
2019-05-21T23:22:49.203Z,19.36
2019-05-21T23:25:21.066Z,19.35
2019-05-21T23:27:53.302Z,19.37
2019-05-21T23:30:26.540Z,19.28
2019-05-21T23:32:57.945Z,19.25
2019-05-21T23:35:28.807Z,19.24
2019-05-21T23:38:01.528Z,19.13
2019-05-21T23:40:32.968Z,19.17
2019-05-21T23:43:06.226Z,19.19
2019-05-21T23:45:37.933Z,19.18
2019-05-21T23:48:11.157Z,19.18
2019-05-21T23:50:42.826Z,19.16
2019-05-21T23:53:13.477Z,19.13
2019-05-21T23:55:44.554Z,18.90
2019-05-21T23:58:15.987Z,18.98
